Tiempo atmosférico en la estación meteorológica de Girona Aeropuerto, Girona (143 m.)



Fecha
DESCASC
Temp. máxima en grados centígrados (hora)
DESCASC
Temp. mínima en grados centígrados (hora)
DESCASC
Temp. media en grados centígrados
DESCASC
Racha de viento máxima en m/sg (hora)
DESCASC
Velocidad máxima media en intervalos de 10 minutos(hora)
DESCASC
Precipitaciones diarias en mm
DESCASC
Precipitaciones de 00:00 a 06:00 en mm
DESCASC
Precipitaciones de 06:00 a 12:00 en mm
DESCASC
Precipitaciones de 12:00 a 18:00 en mm
DESCASC
Precipitaciones de 18:00 a 24:00 en mm
DESCASC
17-02-2019 15.9 (13:30) -1.2 (04:50) 7.3 10.83 (17:20) 7.78 (16:50) 0 0 0 0 0
16-02-2019 18.8 (14:30) -3 (07:40) 7.9 7.78 (14:50) 6.11 (15:40) 0 0 0 0 0
15-02-2019 17.8 (13:20) -2.8 (07:20) 7.5 9.17 (13:50) 6.67 (13:10) 0 0 0 0 0
14-02-2019 16.6 (14:10) -2.5 (-00:0) 7.1 12.78 (17:30) 8.61 (15:50) 0 0 0 0 0
13-02-2019 14.8 (13:40) -1.5 (-00:0) 6.7 8.89 (15:50) 5.56 (16:20) 0 0 0 0 0
12-02-2019 17.4 (15:10) -0.6 (-00:0) 8.4 8.89 (06:40) 3.61 (15:20) 0 0 0 0 0
11-02-2019 16.1 (15:00) 5 (00:00) 10.6 7.78 (15:50) 5.28 (15:50) 0.2 0.2 0 0 0
10-02-2019 19.4 (12:10) 7.9 (00:00) 13.6 16.94 (12:30) 12.22 (12:30) 0 0 0 0 0
09-02-2019 18.6 (15:20) 2 (00:00) 10.3 7.22 (16:20) 5.56 (17:10) 0 0 0 0 0
08-02-2019 17 (15:30) 4.1 (00:00) 10.5 7.78 (15:30) 5.83 (15:40) 0 0 0 0 0
07-02-2019 16.3 (14:50) 2 (00:00) 9.1 5.83 (14:40) 3.61 (14:40) 0 0 0 0 0
06-02-2019 18.8 (14:00) 0.3 (00:00) 9.5 7.78 (14:30) 5.83 (14:40) 0 0 0 0 0
05-02-2019 18 (16:40) 2.4 (00:00) 10.2 4.72 (17:50) 3.61 (18:10) 0 0 0 0 0
04-02-2019 13.5 (14:30) -6 (-00:0) 3.8 6.67 (13:20) 5 (17:00) 0 0 0 0 0
03-02-2019 13.3 (15:20) -2.1 (-00:0) 5.6 11.67 (14:50) 6.39 (15:00) 0 0 0 0 0
02-02-2019 12.2 (12:40) 2.6 (00:00) 7.4 11.39 (00:30) 7.5 (00:30) 0.6 0.3 0.3 0 0
01-02-2019 18.1 (13:30) 7.2 (00:00) 12.7 13.89 (13:20) 8.89 (15:20) 0 0 0 0 0
31-01-2019 15 (16:30) 1.3 (00:00) 8.1 10.28 (23:50) 6.94 (23:50) 0 0 0 0 0
30-01-2019 12.1 (14:30) -2.4 (-00:0) 4.9 8.33 (13:40) 4.44 (14:10) 0 0 0 0 0
29-01-2019 7.9 (16:20) -1.7 (-00:0) 3.1 9.17 (16:10) 6.67 (16:00) 0 0 0 0 0
28-01-2019 12.3 (13:40) -2.7 (-00:0) 4.8 10.28 (13:50) 5.28 (13:30) 1.8 0 0 1.8 0
27-01-2019 14 (15:00) 0.8 (00:00) 7.4 7.78 (15:50) 4.44 (14:40) 0.4 0 0 0.4 0
26-01-2019 15.9 (14:50) -1.2 (-00:0) 7.3 7.22 (13:50) 5.83 (15:30) 0 0 0 0 0
25-01-2019 15.1 (14:20) -1.5 (-00:0) 6.8 8.89 (08:10) 5.28 (12:40) 0 0 0 0 0
24-01-2019 13.8 (15:30) 0.8 (00:00) 7.3 18.89 (13:40) 12.22 (14:00) 0 0 0 0 0
23-01-2019 9.2 (13:30) -1 (-00:0) 4.1 11.67 (19:10) 8.33 (19:00) 0 0 0 0 0
22-01-2019 11.4 (14:30) -3.4 (-00:0) 4 7.78 (15:00) 5.56 (15:00) 0 0 0 0 0
21-01-2019 11.3 (14:20) -0.9 (-00:0) 5.2 6.11 (20:30) 3.89 (20:20) -- 0 0 -- 0
20-01-2019 8.6 (14:20) 2.3 (00:00) 5.5 10.83 (14:40) 7.78 (14:40) 8 0.9 7.1 0 0
19-01-2019 12.4 (13:20) 0.7 (00:00) 6.5 8.89 (12:50) 6.67 (14:30) 0 0 0 0 0

Gráficas

Temp. máximas Temp. mínimas Temp. medias Precipitaciones Rachas de viento máximas Velocidades máximas media en intervalos de 10 minutos

Datos horarios

Fecha y hora oficial Temperatura (ºC) Velocidad del viento (km/h) Dirección del viento Racha (km/h) Dirección de racha Precipitación (mm) Presión (hPa) Tendencia (hPa) Humedad (%)
2019-02-17 23:00:00 5.9 10 Sur 11 Sur 0 1009.3 0.4 97
2019-02-17 22:00:00 6.5 7 Sudoeste 13 Sudoeste 0 1009.4 0.7 95
2019-02-17 21:00:00 7.6 9 Sudoeste 15 Sur 0 1009 0.6 95
2019-02-17 20:00:00 8.4 14 Sur 26 Sur 0 1008.9 0.5 94
2019-02-17 19:00:00 10.1 19 Sur 33 Sur 0 1008.7 -0.1 88
2019-02-17 18:00:00 11.6 24 Sur 39 Sur 0 1008.4 -0.5 81
2019-02-17 17:00:00 13.6 24 Sur 35 Sur 0 1008.4 -1.2 71
2019-02-17 16:00:00 14.8 25 Sur 33 Sur 0 1008.8 -1.6 67
2019-02-17 15:00:00 15.5 23 Sur 32 Sur 0 1008.9 -2.3 65
2019-02-17 14:00:00 15.6 24 Sur 33 Sur 0 1009.6 -1.8 62
2019-02-17 13:00:00 15.3 23 Sur 33 Sur 0 1010.4 -1.3 63
2019-02-17 12:00:00 13.7 18 Sur 28 Sur 0 1011.2 -0.5 71
2019-02-17 11:00:00 10.2 11 Sur 17 Sur 0 1011.4 0 71
2019-02-17 10:00:00 4.7 6 Sudoeste 9 Sur 0 1011.7 0.5 83
2019-02-17 09:00:00 -0.3 5 Oeste 11 Oeste 0 1011.7 0.5 97
2019-02-17 08:00:00 -0.2 4 Oeste 9 Oeste 0 1011.4 0.3 98
2019-02-17 07:00:00 0.6 5 Oeste 9 Oeste 0 1011.2 -0.1 99
2019-02-17 06:00:00 0.6 0 Calma 5 Nordeste 0 1011.2 -0.5 99
2019-02-17 05:00:00 -1 3 Nordeste 8 Oeste 0 1011.1 -0.9 99
2019-02-17 04:00:00 -0.8 0 Calma -- -- 0 1011.3 -0.9 99
2019-02-17 03:00:00 0.5 0 Calma 4 Este 0 1011.7 -0.7 99
2019-02-17 02:00:00 1.1 0 Calma 8 Noroeste 0 1012 -0.6 98
2019-02-17 01:00:00 3.6 3 Sur -- -- 0 1012.2 -0.4 99
2019-02-17 00:00:00 5.8 4 Sur 13 Sudoeste 0 1012.4 -0.1 99
2019-02-16 23:00:00 6.2 6 Sudoeste 11 Oeste 0 1012.6 0.2 98
2019-02-16 22:00:00 4.9 5 Oeste 8 Oeste 0 1012.6 0.2 93
2019-02-16 21:00:00 6.4 6 Sudoeste -- -- 0 1012.5 0.6 91
2019-02-16 20:00:00 8.2 5 Sudoeste 15 Sur 0 1012.4 0.4 89
2019-02-16 19:00:00 8.8 14 Sur 21 Sur 0 1012.4 0.1 75
2019-02-16 18:00:00 12.9 13 Sur 22 Sur 0 1011.9 -0.8 53
2019-02-16 17:00:00 15.3 15 Sur 24 Sur 0 1012 -1.2 47
2019-02-16 16:00:00 16.6 21 Sur 28 Sur 0 1012.3 -1.8 46
2019-02-16 15:00:00 18.1 18 Sur 28 Sur 0 1012.7 -2.2 30
2019-02-16 14:00:00 17.9 17 Sur 22 Sur 0 1013.2 -1.8 34
2019-02-16 13:00:00 15.8 8 Sur 13 Sur 0 1014.1 -0.7 37
2019-02-16 12:00:00 12.9 5 Sur 11 Sudoeste 0 1014.9 0.1 48
2019-02-16 11:00:00 9.6 3 Sudeste 9 Sudeste 0 1015 0.9 71
2019-02-16 10:00:00 5 3 Sur 8 Sur 0 1014.8 1.2 83
2019-02-16 09:00:00 0.9 0 Calma 2 Noroeste 0 1014.8 1 98
2019-02-16 08:00:00 -2.3 0 Calma -- -- 0 1014.1 0.7 100
2019-02-16 07:00:00 -2.5 0 Calma 4 Este 0 1013.6 0.4 100
2019-02-16 06:00:00 -2.1 0 Calma 5 Oeste 0 1013.8 0.6 100
2019-02-16 05:00:00 -1 0 Calma 5 Nordeste 0 1013.4 0.3 100
2019-02-16 04:00:00 0.3 5 Nordeste 9 Nordeste 0 1013.2 0 100
2019-02-16 03:00:00 -0.2 0 Calma 5 Este 0 1013.2 0 99
2019-02-16 02:00:00 0.5 0 Calma 5 Oeste 0 1013.1 -0.2 98
2019-02-16 01:00:00 1.7 3 Oeste 9 Este 0 1013.2 0 98
2019-02-16 00:00:00 2.7 0 Calma 9 Oeste 0 1013.2 0.1 98
2019-02-15 23:00:00 3.3 0 Calma 5 Nordeste 0 1013.3 0.2 97
2019-02-15 22:00:00 3.6 4 Nordeste 5 Nordeste 0 1013.2 0.5 94
2019-02-15 21:00:00 6.9 5 Oeste 9 Sudoeste 0 1013.1 0.7 95
2019-02-15 20:00:00 7.8 5 Sur 11 Sudoeste 0 1013.1 1.1 91
2019-02-15 19:00:00 9 9 Sudoeste 18 Sur 0 1012.7 0.8 87
2019-02-15 18:00:00 11.3 16 Sur 32 Sur 0 1012.4 0.2 76
2019-02-15 17:00:00 14.5 19 Sur 28 Sur 0 1012 -0.8 55
2019-02-15 16:00:00 16.1 20 Sur 28 Sur 0 1011.9 -1.7 49
2019-02-15 15:00:00 16.2 20 Sur 32 Sur 0 1012.2 -2.5 51
2019-02-15 14:00:00 17.2 24 Sur 33 Sur 0 1012.8 -2.1 38
2019-02-15 13:00:00 17.3 22 Sur 30 Sur 0 1013.6 -1.8 30
2019-02-15 12:00:00 13.2 10 Sur 17 Sur 0 1014.7 -0.5 48
2019-02-15 11:00:00 9.4 5 Sur 11 Sur 0 1014.9 0.1 60
2019-02-15 10:00:00 5.7 0 Calma 5 Sudoeste 0 1015.4 1 83
2019-02-15 09:00:00 0.7 0 Calma -- -- 0 1015.2 0.7 96
2019-02-15 08:00:00 -2.4 0 Calma 5 Nordeste 0 1014.8 0.5 98
2019-02-15 07:00:00 -1.9 0 Calma -- -- 0 1014.4 0.1 98
2019-02-15 06:00:00 -1.7 0 Calma 9 Nordeste 0 1014.5 0 98
2019-02-15 05:00:00 -2.3 6 Nordeste 9 Nordeste 0 1014.3 -0.1 97
2019-02-15 04:00:00 -0.7 0 Calma -- -- 0 1014.3 -0.4 97
2019-02-15 03:00:00 0.3 0 Calma 9 Este 0 1014.5 -0.5 98
2019-02-15 02:00:00 0.6 0 Calma 5 Este 0 1014.4 -0.9 96
2019-02-15 01:00:00 0.3 0 Calma 5 Sur 0 1014.7 -0.7 93
2019-02-15 00:00:00 1.4 0 Calma 9 Oeste 0 1015 -0.3 94
2019-02-14 23:00:00 3.5 3 Oeste -- -- 0 1015.3 0.1 89
2019-02-14 22:00:00 5.2 2 Sudoeste 11 Sur 0 1015.4 0.3 92
2019-02-14 21:00:00 6 9 Sur 17 Sur 0 1015.3 0.3 90
2019-02-14 20:00:00 7.5 10 Sur 24 Sur 0 1015.2 0 83
2019-02-14 19:00:00 9.2 20 Sur 33 Sur 0 1015.1 -0.4 78
2019-02-14 18:00:00 11 23 Sur 46 Sur 0 1015 -0.8 70
2019-02-14 17:00:00 13.3 28 Sur 42 Sur 0 1015.2 -1.3 50
2019-02-14 16:00:00 14.6 28 Sur 39 Sur 0 1015.5 -2 51
2019-02-14 15:00:00 15.7 25 Sur 35 Sur 0 1015.8 -2.9 44
2019-02-14 14:00:00 16.2 21 Sur 30 Sur 0 1016.5 -2.5 44
2019-02-14 13:00:00 14.9 18 Sur 26 Sur 0 1017.5 -1.5 55
2019-02-14 12:00:00 11.9 16 Sur 22 Sur 0 1018.7 -0.4 67
2019-02-14 11:00:00 8.3 5 Sur 9 Sudoeste 0 1019 0.1 70
2019-02-14 10:00:00 3.9 0 Calma 5 Sur 0 1019 0.2 92
2019-02-14 09:00:00 0 0 Calma 5 Sudeste 0 1019.1 0.3 100
2019-02-14 08:00:00 -2.3 4 Oeste 8 Oeste 0 1018.9 0.5 100
2019-02-14 07:00:00 -2 4 Nordeste 8 Nordeste 0 1018.8 0.4 100
2019-02-14 06:00:00 -1.2 0 Calma 5 Noroeste 0 1018.8 0.4 100
2019-02-14 05:00:00 -0.4 0 Calma 8 Oeste 0 1018.4 -0.1 99
2019-02-14 04:00:00 0.1 0 Calma 5 Este 0 1018.4 -0.2 98
2019-02-14 03:00:00 0.4 0 Calma -- -- 0 1018.4 0.3 98
2019-02-14 02:00:00 1 0 Calma 5 Norte 0 1018.5 0.6 97
2019-02-14 01:00:00 2 0 Calma -- -- 0 1018.6 1 96
2019-02-14 00:00:00 2.7 0 Calma 4 Oeste 0 1018.1 0.8 95
2019-02-13 23:00:00 3.6 0 Calma 8 Nordeste 0 1017.9 0.9 95
2019-02-13 22:00:00 4.1 0 Calma 4 Nordeste 0 1017.6 1 92
2019-02-13 21:00:00 5.5 5 Norte -- -- 0 1017.3 1.2 88
2019-02-13 20:00:00 7.2 7 Nordeste 9 Nordeste 0 1017 1 86
2019-02-13 19:00:00 8.7 6 Sudeste 15 Sur 0 1016.6 0.7 81
2019-02-13 18:00:00 10.9 13 Sur 22 Sur 0 1016.1 0.2 74
2019-02-13 17:00:00 12.7 18 Sur 28 Sur 0 1016 -0.3 64
2019-02-13 16:00:00 13.8 18 Sur 32 Sur 0 1015.9 -1 57
2019-02-13 15:00:00 14.6 16 Sur 30 Sur 0 1015.9 -1.3 53
2019-02-13 14:00:00 14.6 17 Sur 26 Sudoeste 0 1016.3 -0.6 52
2019-02-13 13:00:00 14.1 15 Sur 24 Sur 0 1016.9 0.2 52
2019-02-13 12:00:00 13.1 12 Sur 18 Sur 0 1017.2 0.5 52
2019-02-13 11:00:00 10.8 6 Sur 9 Sur 0 1016.9 0.7 59
2019-02-13 10:00:00 6.1 3 Nordeste 9 Nordeste 0 1016.7 1.3 72
2019-02-13 09:00:00 2.2 3 Este 8 Este 0 1016.7 1.7 85
2019-02-13 08:00:00 -0.9 3 Sudoeste 8 Nordeste 0 1016.2 2 91
2019-02-13 07:00:00 -1.1 0 Calma 9 Oeste 0 1015.4 1.2 91
2019-02-13 06:00:00 -0.8 3 Este 13 Norte 0 1015 0.9 90
2019-02-13 05:00:00 -0.9 8 Nordeste 9 Nordeste 0 1014.2 0 93
2019-02-13 04:00:00 -0.6 6 Nordeste 11 Nordeste 0 1014.2 -0.3 94
2019-02-13 03:00:00 0.3 0 Calma 5 Este 0 1014.1 -0.4 92
2019-02-13 02:00:00 0.6 2 Noroeste 8 Sur 0 1014.2 -0.6 92
2019-02-13 01:00:00 1.6 0 Calma 5 Este 0 1014.5 -0.3 91
2019-02-13 00:00:00 2.9 0 Calma 8 Oeste 0 1014.5 0 85
2019-02-12 23:00:00 3.5 0 Calma 8 Nordeste 0 1014.8 0.4 88
2019-02-12 22:00:00 4.5 2 Oeste 8 Oeste 0 1014.8 0.9 82
2019-02-12 21:00:00 6.2 0 Calma 11 Nordeste 0 1014.5 0.9 78
2019-02-12 20:00:00 7.6 9 Norte 11 Sudoeste 0 1014.4 1 76
2019-02-12 19:00:00 11.1 7 Sudoeste 13 Sur 0 1013.9 0.4 63
2019-02-12 18:00:00 12.5 12 Sur 17 Sur 0 1013.6 -0.1 58
2019-02-12 17:00:00 16.2 12 Sur 17 Sur 0 1013.4 -1 37
2019-02-12 16:00:00 16.9 13 Sudoeste 24 Sur 0 1013.5 -1.7 33
2019-02-12 15:00:00 17.1 10 Sur 18 Sudoeste 0 1013.7 -2.2 31
2019-02-12 14:00:00 16.2 12 Sur 21 Sur 0 1014.4 -1.4 31
2019-02-12 13:00:00 15 8 Sur 15 Sur 0 1015.2 -0.7 37
2019-02-12 12:00:00 12.6 6 Sur 11 Sur 0 1015.9 0 55
2019-02-12 11:00:00 10.1 4 Sudeste 11 Oeste 0 1015.8 0.5 66
2019-02-12 10:00:00 6.1 3 Oeste 13 Sur 0 1015.9 1.4 80
2019-02-12 09:00:00 2.8 2 Sudeste 13 Sur 0 1015.9 1.7 93
2019-02-12 08:00:00 0.1 5 Norte 11 Norte 0 1015.3 1.1 96
2019-02-12 07:00:00 0.6 5 Nordeste 32 Sudeste 0 1014.5 0.3 93
2019-02-12 06:00:00 1.4 6 Oeste 11 Oeste 0 1014.2 -0.1 95
2019-02-12 05:00:00 1.5 2 Sudoeste 9 Sur 0 1014.2 -0.1 93
2019-02-12 04:00:00 4.2 6 Norte 13 Noroeste 0 1014.2 -0.3 84
2019-02-12 03:00:00 2.5 7 Sur 15 Sur 0 1014.3 -0.1 90
2019-02-12 02:00:00 4.3 8 Noroeste 13 Noroeste 0 1014.3 0.4 86
2019-02-12 01:00:00 4.1 7 Nordeste 11 Sudeste 0 1014.5 1.1 86
2019-02-12 00:00:00 5.1 7 Este 11 Este 0 1014.4 1.4 82
2019-02-11 23:00:00 6.5 3 Norte 9 Oeste 0 1013.9 1.4 77
2019-02-11 22:00:00 7.5 5 Oeste 8 Oeste 0 1013.4 1.6 70
2019-02-11 21:00:00 9.2 3 Sudeste 18 Este 0 1013 2.4 64
2019-02-11 20:00:00 9.5 9 Este 17 Este 0 1012.5 2.6 61
2019-02-11 19:00:00 10.6 10 Sudeste 15 Sudeste 0 1011.8 2.2 69
2019-02-11 18:00:00 11.1 10 Sur 22 Sur 0 1010.6 1.4 75
2019-02-11 17:00:00 12.7 13 Sur 22 Sur 0 1009.9 0.5 66
2019-02-11 16:00:00 13.4 15 Sudeste 28 Sudeste 0 1009.6 -0.3 64
2019-02-11 15:00:00 15.7 12 Sur 24 Sudeste 0 1009.2 -0.9 52
2019-02-11 14:00:00 15.5 9 Sur 15 Sur 0 1009.4 -0.1 52
2019-02-11 13:00:00 15 6 Sudoeste 9 Sudoeste 0 1009.9 1 51
2019-02-11 12:00:00 13.4 5 Este 21 Nordeste 0 1010.1 1.7 52
2019-02-11 11:00:00 11.6 11 Nordeste 15 Nordeste 0 1009.5 2.3 56
2019-02-11 10:00:00 9.7 2 Nordeste 8 Nordeste 0 1008.9 2.3 65
2019-02-11 09:00:00 7 5 Norte 11 Norte 0 1008.4 2.3 73
2019-02-11 08:00:00 6.4 5 Noroeste 9 Noroeste 0 1007.2 2 84
2019-02-11 07:00:00 6.8 0 Calma 5 Nordeste 0 1006.6 1.3 87
2019-02-11 06:00:00 8.7 2 Norte 9 Norte 0 1006.1 1.3 82
2019-02-11 05:00:00 8.3 6 Noroeste 9 Norte 0.2 1005.2 0.8 81
2019-02-11 04:00:00 9.3 5 Norte 13 Norte 0 1005.3 1.5 70
2019-02-11 03:00:00 9.2 5 Noroeste -- -- 0 1004.8 1.2 78
2019-02-11 02:00:00 9.8 8 Este 11 Nordeste 0 1004.4 0.9 70
2019-02-11 01:00:00 10.3 9 Este 13 Este 0 1003.8 0.6 65
2019-02-11 00:00:00 10.6 6 Este 9 Este 0 1003.6 1 69
2019-02-10 23:00:00 10.8 4 Sudeste 8 Sudeste 0 1003.5 1.7 77
2019-02-10 22:00:00 11 5 Sur 8 Sur 0 1003.2 2.6 88
2019-02-10 21:00:00 11.2 5 Sur 15 Sudeste 0 1002.6 2.8 85
2019-02-10 20:00:00 11.2 10 Sudeste 18 Sudeste 0 1001.8 3.1 88
2019-02-10 19:00:00 11.6 10 Sudeste 17 Sudeste 0 1000.6 2.8 76
2019-02-10 18:00:00 14 8 Sudeste 18 Norte 0 999.8 2.6 70
2019-02-10 17:00:00 17.1 15 Nordeste 21 Nordeste 0 998.7 1.9 52
2019-02-10 16:00:00 18.7 4 Nordeste 21 Oeste 0 997.8 0 36
2019-02-10 15:00:00 17.9 9 Noroeste 24 Noroeste 0 997.2 -0.3 40
2019-02-10 14:00:00 17.3 10 Noroeste 32 Noroeste 0 996.8 -0.6 40
2019-02-10 13:00:00 18.1 20 Oeste 61 Oeste 0 997.8 0.5 35
2019-02-10 12:00:00 18.7 12 Oeste 35 Oeste 0 997.5 0.1 36
2019-02-10 11:00:00 15.6 21 Oeste 46 Sudoeste 0 997.4 0 45
2019-02-10 10:00:00 14.2 6 Oeste 22 Noroeste 0 997.3 -0.5 52
2019-02-10 09:00:00 12.6 6 Oeste 28 Sudoeste 0 997.4 -1 54
2019-02-10 08:00:00 8.9 7 Nordeste 15 Norte 0 997.4 -1.2 73
2019-02-10 07:00:00 8.2 10 Nordeste 15 Nordeste 0 997.8 -1.4 81
2019-02-10 06:00:00 8.9 4 Este 15 Nordeste 0 998.4 -2.2 78
2019-02-10 05:00:00 9.3 7 Nordeste 13 Nordeste 0 998.6 -2.7 78
2019-02-10 04:00:00 8.4 8 Sudeste 11 Sudeste 0 999.2 -2.7 85
2019-02-10 03:00:00 9.2 3 Norte 17 Sudoeste 0 1000.6 -2 86
2019-02-10 02:00:00 9.6 11 Sudoeste 17 Sudoeste 0 1001.3 -2 88
2019-02-10 01:00:00 9.2 6 Sudoeste 21 Sur 0 1001.9 -1.9 93
2019-02-10 00:00:00 7.9 14 Sur 21 Sur 0 1002.6 -1.6 98
2019-02-09 23:00:00 7.3 8 Sudoeste 18 Sur 0 1003.3 -1.3 99
2019-02-09 22:00:00 7.7 13 Sudoeste 17 Sur 0 1003.8 -0.8 98
2019-02-09 21:00:00 8.5 6 Sur 9 Sudoeste 0 1004.2 -0.2 96
2019-02-09 20:00:00 8.7 10 Sur 17 Sur 0 1004.6 0.3 93
2019-02-09 19:00:00 10.5 15 Sur 21 Sur 0 1004.6 0.1 87
2019-02-09 18:00:00 12.9 14 Sur 24 Sur 0 1004.4 -0.5 75
2019-02-09 17:00:00 16.4 19 Sur 26 Sur 0 1004.3 -1.1 53
2019-02-09 16:00:00 18.3 15 Sur 22 Sur 0 1004.5 -1.9 51
2019-02-09 15:00:00 18.1 9 Sur 15 Sudeste 0 1004.9 -2.1 44
2019-02-09 14:00:00 17.5 6 Sur 11 Sudoeste 0 1005.4 -1.6 42
2019-02-09 13:00:00 14.9 4 Sur 8 Sudoeste 0 1006.4 -0.4 62
2019-02-09 12:00:00 11.6 3 Sur 9 Sur 0 1007 0.5 73
2019-02-09 11:00:00 8.9 3 Sudeste 8 Este 0 1007 1.3 87
2019-02-09 10:00:00 6.3 6 Nordeste 9 Nordeste 0 1006.8 1.6 96
2019-02-09 09:00:00 3 5 Nordeste 8 Nordeste 0 1006.5 1.7 98
2019-02-09 08:00:00 2.4 4 Sudeste 9 Este 0 1005.7 1.3 97
2019-02-09 07:00:00 2.5 5 Oeste 9 Oeste 0 1005.2 1 97
2019-02-09 06:00:00 3.7 3 Sur 8 Este 0 1004.8 0.7 97
2019-02-09 05:00:00 4.4 3 Noroeste 9 Norte 0 1004.4 0.6 95
2019-02-09 04:00:00 5.5 4 Nordeste 17 Norte 0 1004.2 0.6 94
2019-02-09 03:00:00 4.7 12 Norte 15 Norte 0 1004.1 0.6 98
2019-02-09 02:00:00 4.7 5 Norte 13 Norte 0 1003.8 0.6 97
2019-02-09 01:00:00 4.5 10 Nordeste 13 Nordeste 0 1003.6 0.9 97
2019-02-09 00:00:00 4.7 10 Nordeste 13 Norte 0 1003.5 0.9 97
2019-02-08 23:00:00 6.8 4 Sudoeste 9 Sudoeste 0 1003.2 0.6 94
2019-02-08 22:00:00 7.1 3 Sur 15 Sudoeste 0 1002.7 0.4 93
2019-02-08 21:00:00 8.6 10 Sudoeste 13 Sudoeste 0 1002.6 0.5 91
2019-02-08 20:00:00 10.1 7 Sur 11 Sur 0 1002.6 0.3 87
2019-02-08 19:00:00 10.6 6 Sudeste 13 Sur 0 1002.3 -0.3 86
2019-02-08 18:00:00 12.5 10 Sur 24 Sur 0 1002.1 -1.1 79
2019-02-08 17:00:00 14.5 18 Sur 26 Sur 0 1002.3 -1.7 70
2019-02-08 16:00:00 16.3 19 Sur 28 Sur 0 1002.6 -2.7 57
2019-02-08 15:00:00 15.9 15 Sur 22 Sur 0 1003.2 -2.9 55
2019-02-08 14:00:00 15.1 7 Sur 15 Sur 0 1004 -2.7 60
2019-02-08 13:00:00 13 10 Sur 17 Sur 0 1005.3 -1.5 65
2019-02-08 12:00:00 13.7 7 Sur 11 Sudoeste 0 1006.1 -0.7 70
2019-02-08 11:00:00 10.7 6 Sur 11 Sur 0 1006.7 0.2 84
2019-02-08 10:00:00 8.6 4 Sur 5 Sudoeste 0 1006.8 0.7 96
2019-02-08 09:00:00 6.2 3 Norte 8 Noroeste 0 1006.8 0.7 98
2019-02-08 08:00:00 5.7 2 Sur 11 Nordeste 0 1006.5 0.4 98
2019-02-08 07:00:00 6.6 9 Norte 13 Norte 0 1006.1 -0.3 99
2019-02-08 06:00:00 5.5 9 Norte 11 Norte 0 1006.1 -0.7 97
2019-02-08 05:00:00 7 0 Calma 5 Nordeste 0 1006.1 -0.8 97
2019-02-08 04:00:00 7.4 0 Calma 5 Sudoeste 0 1006.4 -0.9 96
2019-02-08 03:00:00 7.6 0 Calma 8 Noroeste 0 1006.8 -0.6 97
2019-02-08 02:00:00 7.7 5 Oeste -- -- 0 1006.9 -0.7 97
2019-02-08 01:00:00 7.3 4 Nordeste 9 Oeste 0 1007.3 0.4 96
2019-02-08 00:00:00 7.2 9 Sudoeste 11 Oeste 0 1007.4 0.8 96
2019-02-07 23:00:00 8.1 0 Calma 8 Este 0 1007.6 1.6 93
2019-02-07 22:00:00 8.8 5 Este 9 Este 0 1006.9 1.4 91
2019-02-07 21:00:00 9.5 5 Oeste 13 Sudoeste 0 1006.6 1.8 90
2019-02-07 20:00:00 10.3 10 Sudoeste 13 Sudoeste 0 1006 1.3 86
2019-02-07 19:00:00 11.5 6 Sur 15 Sur 0 1005.5 1.4 81
2019-02-07 18:00:00 12.7 11 Sur 15 Sudoeste 0 1004.8 0.4 79
2019-02-07 17:00:00 13.8 10 Sur 17 Sur 0 1004.7 0 75
2019-02-07 16:00:00 15.3 12 Sur 18 Sudoeste 0 1004.1 -1 70
2019-02-07 15:00:00 15.8 9 Sur 21 Sur 0 1004.4 -1.1 65
2019-02-07 14:00:00 15.6 9 Sur 17 Sur 0 1004.7 -1.1 67
2019-02-07 13:00:00 14.5 9 Sur 15 Sur 0 1005.1 -0.6 71
2019-02-07 12:00:00 12.3 7 Sur 11 Sudeste 0 1005.5 0 77
2019-02-07 11:00:00 9.1 0 Calma 9 Sur 0 1005.8 0.9 98
2019-02-07 10:00:00 5.4 0 Calma 5 Oeste 0 1005.7 1 100
2019-02-07 09:00:00 3.1 2 Nordeste 5 Nordeste 0 1005.5 0.9 100
2019-02-07 08:00:00 2.3 0 Calma 8 Oeste 0 1004.9 0.3 100
2019-02-07 07:00:00 3.5 3 Noroeste 5 Noroeste 0 1004.7 0.1 100
2019-02-07 06:00:00 5 0 Calma 8 Nordeste 0 1004.6 -0.3 100
2019-02-07 05:00:00 5.7 5 Nordeste 8 Norte 0 1004.6 -0.6 100
2019-02-07 04:00:00 5.2 0 Calma 5 Noroeste 0 1004.6 -0.9 99
2019-02-07 03:00:00 6.3 0 Calma 8 Noroeste 0 1004.9 -0.8 99
2019-02-07 02:00:00 5.8 4 Oeste 8 Oeste 0 1005.2 -0.6 99
2019-02-07 01:00:00 6.2 0 Calma 4 Oeste 0 1005.5 -0.7 98
2019-02-07 00:00:00 6.5 0 Calma 5 Noroeste 0 1005.7 -0.5 97
2019-02-06 23:00:00 7.5 4 Norte 8 Noroeste 0 1005.8 -0.6 94
2019-02-06 22:00:00 9.6 6 Noroeste 8 Noroeste 0 1006.2 0 91
2019-02-06 21:00:00 10.6 6 Sudoeste 11 Sur 0 1006.2 0.6 92
2019-02-06 20:00:00 10.4 5 Sur 13 Sur 0 1006.4 0.7 92
2019-02-06 19:00:00 10.1 13 Sur 18 Sur 0 1006.2 0.4 89
2019-02-06 18:00:00 12.2 12 Sudoeste 22 Sudoeste 0 1005.6 -0.7 79
2019-02-06 17:00:00 15.6 17 Sur 26 Sur 0 1005.7 -1.2 65
2019-02-06 16:00:00 17.5 17 Sur 26 Sur 0 1005.8 -1.9 55
2019-02-06 15:00:00 18.4 19 Sur 28 Sur 0 1006.3 -2.3 50
2019-02-06 14:00:00 18.7 14 Sur 24 Sur 0 1006.9 -2.1 51
2019-02-06 13:00:00 17.6 12 Sur 17 Sur 0 1007.7 -1.6 53
2019-02-06 12:00:00 14.4 7 Sudoeste 11 Sur 0 1008.6 -0.7 54
2019-02-06 11:00:00 10.6 5 Sur 9 Sur 0 1009 -0.1 68
2019-02-06 10:00:00 6.7 4 Sur 8 Sur 0 1009.3 0.5 80
2019-02-06 09:00:00 3.4 0 Calma 8 Oeste 0 1009.3 0.4 93
2019-02-06 08:00:00 0.7 3 Nordeste 9 Nordeste 0 1009.1 0.3 97
2019-02-06 07:00:00 1 3 Nordeste 8 Nordeste 0 1008.8 -0.5 96
2019-02-06 06:00:00 1.1 0 Calma 5 Nordeste 0 1008.9 -0.8 96
2019-02-06 05:00:00 1.1 0 Calma -- -- 0 1008.8 -0.9 96
2019-02-06 04:00:00 1.9 0 Calma -- -- 0 1009.3 -0.5 94
2019-02-06 03:00:00 2.3 0 Calma -- -- 0 1009.7 -0.2 92
2019-02-06 02:00:00 2.5 0 Calma 13 Nordeste 0 1009.7 -0.2 92
2019-02-06 01:00:00 3.7 3 Norte 11 Oeste 0 1009.8 0.1 87
2019-02-06 00:00:00 4.4 6 Oeste 9 Oeste 0 1009.9 0.6 90
2019-02-05 23:00:00 4.6 6 Nordeste 8 Nordeste 0 1009.9 0.8 85
2019-02-05 22:00:00 5.3 0 Calma 8 Nordeste 0 1009.7 1 81
2019-02-05 21:00:00 6.2 4 Nordeste 8 Nordeste 0 1009.3 0.9 75
2019-02-05 20:00:00 8.4 6 Sudoeste 11 Sudoeste 0 1009.1 0.8 66
2019-02-05 19:00:00 11.1 9 Sudoeste 17 Sudoeste 0 1008.7 0.5 56
2019-02-05 18:00:00 13.3 12 Sudoeste 17 Sudoeste 0 1008.4 0.3 56
2019-02-05 17:00:00 17.4 7 Sur 11 Sur 0 1008.3 -0.3 39
2019-02-05 16:00:00 17.6 7 Este 13 Este 0 1008.2 -1 34
2019-02-05 15:00:00 17.4 6 Sur 11 Sudoeste 0 1008.1 -1.9 32
2019-02-05 14:00:00 15.8 6 Sur 13 Sur 0 1008.6 -1.4 31
2019-02-05 13:00:00 13.9 6 Sudeste 11 Sudeste 0 1009.2 -0.8 36
2019-02-05 12:00:00 10.9 5 Sur 11 Sur 0 1010 0.3 54
2019-02-05 11:00:00 8.3 2 Sur 9 Sudoeste 0 1010 0.5 64
2019-02-05 10:00:00 6 5 Sudoeste 9 Sudoeste 0 1010 0.7 74
2019-02-05 09:00:00 3.2 0 Calma 4 Oeste 0 1009.7 -0.1 83
2019-02-05 08:00:00 2.5 4 Nordeste 5 Este 0 1009.5 -0.1 85
2019-02-05 07:00:00 3.4 2 Sudeste 5 Este 0 1009.3 -0.4 79
2019-02-05 06:00:00 3.2 5 Noroeste 9 Oeste 0 1009.8 -- 75
2019-02-05 05:00:00 3.3 2 Sudoeste 8 Sudoeste 0 1009.6 -0.6 72
2019-02-05 04:00:00 3.8 4 Nordeste 9 Nordeste 0 1009.7 -0.9 70
2019-02-05 03:00:00 -- -- -- -- -- -- -- -- --
2019-02-05 02:00:00 3.6 6 Nordeste 8 Nordeste 0 1010.2 -0.2 74
2019-02-05 01:00:00 3.8 0 Calma 5 Oeste 0 1010.6 0.3 71
2019-02-05 00:00:00 3.5 0 Calma 5 Nordeste 0 1010.4 0 70
2019-02-04 23:00:00 3.5 0 Calma 5 Nordeste 0 1010.4 0.2 70
2019-02-04 22:00:00 4 0 Calma 5 Este 0 1010.3 0.4 67
2019-02-04 21:00:00 5.1 3 Oeste 8 Sudoeste 0 1010.4 0.8 56
2019-02-04 20:00:00 6.2 5 Sur 8 Sur 0 1010.2 1 51
2019-02-04 19:00:00 7.1 4 Sudeste 11 Sur 0 1009.9 1.1 48
2019-02-04 18:00:00 8 10 Sur 18 Sur 0 1009.6 0.9 47
2019-02-04 17:00:00 10.7 18 Sur 22 Sudoeste 0 1009.2 0 31
2019-02-04 16:00:00 13.3 13 Sur 21 Sur 0 1008.8 -0.7 21
2019-02-04 15:00:00 13.4 14 Sudoeste 21 Sudoeste 0 1008.7 -1.3 23
2019-02-04 14:00:00 13 11 Sur 24 Sur 0 1009.2 -0.6 22
2019-02-04 13:00:00 11.6 17 Sur 22 Sur 0 1009.5 0.2 30
2019-02-04 12:00:00 10.2 6 Sudoeste 11 Sudoeste 0 1010 1.2 31
2019-02-04 11:00:00 6.5 5 Sur 9 Sudoeste 0 1009.8 1.5 44
2019-02-04 10:00:00 2.2 4 Nordeste 21 Nordeste 0 1009.3 1.8 54
2019-02-04 09:00:00 -2.3 2 Sur 9 Oeste 0 1008.8 1.5 73
2019-02-04 08:00:00 -5.7 2 Noroeste 11 Este 0 1008.3 1.8 83
2019-02-04 07:00:00 -4.8 2 Oeste 9 Nordeste 0 1007.5 1.1 77
2019-02-04 06:00:00 -4 6 Este 17 Este 0 1007.3 1.1 73
2019-02-04 05:00:00 -4 2 Este 17 Nordeste 0 1006.5 1.1 72
2019-02-04 04:00:00 -2.8 4 Noroeste 13 Nordeste 0 1006.4 1.3 65
2019-02-04 03:00:00 -1.9 7 Oeste 13 Oeste 0 1006.2 0.9 59
2019-02-04 02:00:00 -0.6 4 Oeste 15 Oeste 0 1005.4 0.5 56
2019-02-04 01:00:00 1.4 4 Nordeste 13 Este 0 1005.1 1 46
2019-02-04 00:00:00 1.6 5 Nordeste 13 Norte 0 1005.3 2.1 47
2019-02-03 23:00:00 5.1 9 Noroeste 24 Noroeste 0 1004.9 2.7 32
2019-02-03 22:00:00 6 13 Noroeste 24 Noroeste 0 1004.1 2.8 31
2019-02-03 21:00:00 5.8 12 Noroeste 18 Norte 0 1003.2 2.3 32
2019-02-03 20:00:00 7 6 Norte 26 Noroeste 0 1002.2 2 29
2019-02-03 19:00:00 8.4 14 Noroeste 28 Noroeste 0 1001.3 1.8 25
2019-02-03 18:00:00 9.9 5 Noroeste 26 Norte 0 1000.9 2.2 26
2019-02-03 17:00:00 11.3 14 Norte 33 Norte 0 1000.2 1.6 23
2019-02-03 16:00:00 12.6 17 Norte 33 Nordeste 0 999.5 1.1 19
2019-02-03 15:00:00 12.9 23 Norte 42 Nordeste 0 998.7 -0.1 18
2019-02-03 14:00:00 12.7 13 Noroeste 32 Noroeste 0 998.6 0.1 18
2019-02-03 13:00:00 12 7 Oeste 17 Sudoeste 0 998.4 0.6 27
2019-02-03 12:00:00 10.2 6 Sur 11 Sur 0 998.8 1.6 36
2019-02-03 11:00:00 7.8 5 Sur 11 Este 0 998.5 2.5 41
2019-02-03 10:00:00 3.1 5 Oeste 11 Oeste 0 997.8 3 70
2019-02-03 09:00:00 -0.9 0 Calma 17 Nordeste 0 997.2 3 82
2019-02-03 08:00:00 -1.3 6 Sudeste 13 Oeste 0 996 2.7 75
2019-02-03 07:00:00 -1.6 0 Calma 13 Noroeste 0 994.8 2.1 82
2019-02-03 06:00:00 -1.3 0 Calma 11 Oeste 0 994.2 2.2 83
2019-02-03 05:00:00 -0.2 2 Nordeste 9 Este 0 993.3 1.9 82
2019-02-03 04:00:00 0.1 2 Oeste 13 Norte 0 992.7 1.9 88
2019-02-03 03:00:00 1.5 7 Norte 13 Nordeste 0 992 1.6 86
2019-02-03 02:00:00 1.9 4 Oeste 9 Oeste 0 991.4 1.6 93
2019-02-03 01:00:00 3.2 5 Nordeste 17 Este 0 990.8 1.7 92
2019-02-03 00:00:00 3.4 4 Oeste 15 Nordeste 0 990.4 1.9 91
2019-02-02 23:00:00 3.9 5 Norte 11 Nordeste 0 989.8 2.4 87
2019-02-02 22:00:00 4.1 9 Noroeste 11 Oeste 0 989.1 2.9 88
2019-02-02 21:00:00 4.6 4 Sur 15 Este 0 988.5 3.2 84
2019-02-02 20:00:00 5.8 5 Oeste 13 Sudoeste 0 987.4 3 80
2019-02-02 19:00:00 6.7 12 Sur 21 Sudoeste 0 986.2 2.6 81
2019-02-02 18:00:00 8.7 8 Sudoeste 11 Sudoeste 0 985.3 2.6 78
2019-02-02 17:00:00 9.4 7 Sudeste 13 Este 0 984.4 2.3 77
2019-02-02 16:00:00 10 8 Este 24 Nordeste 0 983.6 2.2 69
2019-02-02 15:00:00 10.8 5 Norte 15 Noroeste 0 982.7 1.8 60
2019-02-02 14:00:00 10.4 5 Sur 24 Sudoeste 0 982.1 1.6 59
2019-02-02 13:00:00 11.3 14 Sur 24 Sur 0 981.4 1.8 55
2019-02-02 12:00:00 10.6 5 Sudeste 13 Este 0 980.9 1.9 65
2019-02-02 11:00:00 9.5 5 Sur 11 Sur 0 980.5 2.3 71
2019-02-02 10:00:00 5.7 8 Oeste 11 Oeste 0.3 979.6 2.1 89
2019-02-02 09:00:00 5.2 4 Oeste 9 Oeste 0 979 2.8 85
2019-02-02 08:00:00 4.2 5 Oeste 9 Este 0 978.2 2.6 87
2019-02-02 07:00:00 4.5 5 Norte 11 Norte 0 977.5 2.6 85
2019-02-02 06:00:00 3 5 Nordeste 11 Sudoeste 0 976.2 2.2 86
2019-02-02 05:00:00 4.2 4 Nordeste 9 Oeste 0 975.6 2.3 83
2019-02-02 04:00:00 5.4 8 Sudoeste 18 Sudoeste 0 974.9 1.2 77
2019-02-02 03:00:00 7.4 8 Noroeste 30 Noroeste 0 974 0.4 68
2019-02-02 02:00:00 7.5 12 Norte 30 Noroeste 0 973.3 0.2 69
2019-02-02 01:00:00 8.2 14 Noroeste 41 Oeste 0.3 973.7 0.4 71
2019-02-02 00:00:00 10.5 16 Oeste 35 Oeste 0 973.6 0.3 58
2019-02-01 23:00:00 9.2 17 Sudoeste 26 Sudoeste 0 973.1 -0.2 58
2019-02-01 22:00:00 7.5 14 Sudoeste 21 Sudoeste 0 973.3 0.7 68
2019-02-01 21:00:00 8.9 3 Sur 13 Sudoeste 0 973.3 0.9 60
2019-02-01 20:00:00 10.1 8 Oeste 26 Sudoeste 0 973.3 1.6 55
2019-02-01 19:00:00 12.1 20 Sudoeste 41 Sudoeste 0 972.6 0.4 50
2019-02-01 18:00:00 13 12 Sur 37 Oeste 0 972.4 0.7 50
2019-02-01 17:00:00 15.3 24 Sudoeste 41 Oeste 0 971.7 0 39
2019-02-01 16:00:00 17 18 Oeste 50 Oeste 0 972.2 0.2 36
2019-02-01 15:00:00 17.1 28 Oeste 46 Sudoeste 0 971.7 -1.8 37
2019-02-01 14:00:00 17.9 21 Sudoeste 50 Sudoeste 0 971.7 -2.2 31
2019-02-01 13:00:00 17.4 14 Sudoeste 35 Oeste 0 972 -1.7 41
2019-02-01 12:00:00 12.9 15 Sur 21 Sur 0 973.5 -0.4 65
2019-02-01 11:00:00 10.4 5 Nordeste 22 Nordeste 0 973.9 0.1 87
2019-02-01 10:00:00 9 17 Norte 28 Nordeste 0 973.7 -0.2 90
2019-02-01 09:00:00 8.5 13 Nordeste 30 Nordeste 0 973.9 -0.6 93
2019-02-01 08:00:00 8 14 Nordeste 26 Norte 0 973.8 -0.9 91
2019-02-01 07:00:00 8.4 15 Nordeste 22 Nordeste 0 973.9 -1.8 87
2019-02-01 06:00:00 11.2 5 Nordeste 37 Sudoeste 0 974.5 -2.2 75
2019-02-01 05:00:00 11.6 28 Sur 39 Sur 0 974.7 -2.8 74
2019-02-01 04:00:00 12.4 20 Sur 28 Sur 0 975.7 -2.4 70
2019-02-01 03:00:00 12.8 17 Sur 30 Sur 0 976.7 -1.7 69
2019-02-01 02:00:00 12.3 17 Sur 33 Sur 0 977.5 -1.2 70
2019-02-01 01:00:00 12.8 29 Sur 39 Sudoeste 0 978.1 -1 69
2019-02-01 00:00:00 12.6 25 Sur 37 Sur 0 978.4 -1.1 70
2019-01-31 23:00:00 10.4 9 Oeste 15 Oeste 0 978.7 -1.3 77
2019-01-31 22:00:00 12.6 11 Oeste 35 Oeste 0 979.1 -1.2 68
2019-01-31 21:00:00 8.9 9 Sur 13 Sudoeste 0 979.5 -0.8 82
2019-01-31 20:00:00 8.3 8 Norte 11 Noroeste 0 980 -0.5 85
2019-01-31 19:00:00 9 4 Norte 9 Este 0 980.3 -0.2 82
2019-01-31 18:00:00 11.3 6 Sudeste 18 Sudeste 0 980.3 -0.3 73
2019-01-31 17:00:00 13.5 12 Sudeste 17 Este 0 980.5 0 62
2019-01-31 16:00:00 14.5 10 Sudeste 15 Sur 0 980.5 -0.9 53
2019-01-31 15:00:00 14.2 6 Sur 13 Sur 0 980.6 -1.5 53
2019-01-31 14:00:00 13.3 5 Sudoeste 13 Sur 0 980.5 -1.7 54
2019-01-31 13:00:00 10.1 3 Nordeste 11 Nordeste 0 981.4 -1 65
2019-01-31 12:00:00 10.3 9 Norte 13 Nordeste 0 982.1 -0.1 62
2019-01-31 11:00:00 10.3 6 Nordeste 18 Oeste 0 982.2 0.2 60
2019-01-31 10:00:00 9.8 7 Sudoeste 13 Noroeste 0 982.4 0.1 62
2019-01-31 09:00:00 6.3 9 Oeste 15 Oeste 0 982.2 -0.3 72
2019-01-31 08:00:00 4.9 5 Noroeste 17 Sur 0 982 -0.9 73
2019-01-31 07:00:00 5.2 6 Nordeste 17 Sur 0 982.3 -1.6 69
2019-01-31 06:00:00 6.3 6 Norte 13 Norte 0 982.5 -2.4 64
2019-01-31 05:00:00 6.7 5 Oeste 17 Sur 0 982.9 -2.5 62
2019-01-31 04:00:00 6.6 11 Sudeste 26 Sudoeste 0 983.9 -2.8 63
2019-01-31 03:00:00 6.7 23 Sudoeste 33 Sur 0 984.9 -2.5 63
2019-01-31 02:00:00 5.2 9 Sur 18 Sur 0 985.4 -2.9 70
2019-01-31 01:00:00 2.4 10 Sudoeste 17 Sudoeste 0 986.7 -2.1 87
2019-01-31 00:00:00 1.8 5 Oeste 11 Sudeste 0 987.4 -2 94
2019-01-30 23:00:00 1.7 4 Sudeste 11 Sudeste 0 988.3 -1.4 90
2019-01-30 22:00:00 2.4 8 Sur 17 Sudeste 0 988.8 -0.4 90
2019-01-30 21:00:00 3 0 Calma 8 Nordeste 0 989.4 -0.1 87
2019-01-30 20:00:00 4.8 0 Calma 13 Sudeste 0 989.7 0.3 82
2019-01-30 19:00:00 6.3 9 Sudeste 13 Este 0 989.2 -0.6 74
2019-01-30 18:00:00 8.6 7 Sudeste 15 Sudeste 0 989.5 -0.4 66
2019-01-30 17:00:00 11.3 12 Sur 21 Sur 0 989.4 -1.1 52
2019-01-30 16:00:00 11.8 13 Sur 21 Sur 0 989.8 -1.3 49
2019-01-30 15:00:00 11.8 14 Sur 26 Sur 0 989.9 -2 50
2019-01-30 14:00:00 11.6 14 Sur 30 Sur 0 990.5 -1.7 55
2019-01-30 13:00:00 11.2 9 Sur 21 Sur 0 991.1 -0.5 48
2019-01-30 12:00:00 8.9 7 Sudeste 15 Sudeste 0 991.9 0.5 64
2019-01-30 11:00:00 7.6 3 Este 11 Sur 0 992.2 1.4 69
2019-01-30 10:00:00 3.2 3 Sur 13 Norte 0 991.6 1.2 88
2019-01-30 09:00:00 0.7 3 Nordeste 13 Nordeste 0 991.4 1.1 97
2019-01-30 08:00:00 -2.1 5 Sudoeste 11 Noroeste 0 990.8 1.4 98
2019-01-30 07:00:00 -1.6 7 Oeste 17 Sudoeste 0 990.4 1.1 98
2019-01-30 06:00:00 -1.5 5 Nordeste 15 Nordeste 0 990.3 1.4 98
2019-01-30 05:00:00 -0.6 9 Sudoeste 13 Oeste 0 989.4 1.4 98
2019-01-30 04:00:00 -0.9 6 Este 11 Norte 0 989.3 1.3 97
2019-01-30 03:00:00 0.1 7 Norte 15 Norte 0 988.9 1.5 96
2019-01-30 02:00:00 -0.3 4 Nordeste 9 Nordeste 0 988 0.6 96
2019-01-30 01:00:00 0.4 5 Sudoeste 11 Nordeste 0 988 0.4 95
2019-01-30 00:00:00 1.4 5 Sudeste 13 Oeste 0 987.4 0.3 91
2019-01-29 23:00:00 4 6 Sudoeste 21 Norte 0 987.4 0.3 79
2019-01-29 22:00:00 2.5 10 Nordeste 17 Norte 0 987.6 -0.3 87
2019-01-29 21:00:00 3.5 10 Nordeste 13 Norte 0 987.1 -1.3 83
2019-01-29 20:00:00 6.1 12 Sudoeste 21 Sudoeste 0 987.1 -2.3 77
2019-01-29 19:00:00 5.9 2 Este 21 Sudoeste 0 987.9 -2.6 82
2019-01-29 18:00:00 6.6 14 Sur 28 Sudoeste 0 988.4 -2.9 80
2019-01-29 17:00:00 7.5 16 Sudoeste 33 Sudoeste 0 989.4 -3.4 76
2019-01-29 16:00:00 7.7 24 Sudoeste 32 Sur 0 990.5 -3.8 74
2019-01-29 15:00:00 7.1 12 Sudoeste 17 Sudoeste 0 991.3 -4 81
2019-01-29 14:00:00 6.8 6 Sur 9 Sur 0 992.8 -2.8 80
2019-01-29 13:00:00 5.9 5 Sur 11 Sudoeste 0 994.3 -2.1 84
2019-01-29 12:00:00 5.7 3 Sudoeste 5 Sudoeste 0 995.3 -1.4 85
2019-01-29 11:00:00 4.3 2 Sudeste 9 Sur 0 995.6 -0.8 88
2019-01-29 10:00:00 1.7 0 Calma 5 Norte 0 996.4 0.3 95
2019-01-29 09:00:00 0.3 0 Calma 5 Este 0 996.7 0.8 97
2019-01-29 08:00:00 -0.1 3 Sudeste 9 Nordeste 0 996.4 0.9 97
2019-01-29 07:00:00 -0.1 5 Noroeste 9 Oeste 0 996.1 0.9 97
2019-01-29 06:00:00 -0.2 5 Nordeste 15 Noroeste 0 995.9 0.7 92
2019-01-29 05:00:00 -0.8 7 Noroeste 11 Nordeste 0 995.5 0.9 97
2019-01-29 04:00:00 -0.5 3 Noroeste 11 Oeste 0 995.2 0.3 94
2019-01-29 03:00:00 0.7 6 Noroeste 13 Nordeste 0 995.2 0.7 95
2019-01-29 02:00:00 1.7 6 Oeste 15 Oeste 0 994.6 0.3 90
2019-01-29 01:00:00 1.4 9 Oeste 18 Oeste 0 994.9 1.3 92
2019-01-29 00:00:00 2.2 5 Noroeste 21 Oeste 0 994.5 1.2 89
2019-01-28 23:00:00 2.7 7 Sudeste 13 Sur 0 994.3 1.9 89
2019-01-28 22:00:00 3.3 4 Nordeste 17 Norte 0 993.6 1.2 85
2019-01-28 21:00:00 4.4 12 Nordeste 17 Nordeste 0 993.3 1.6 81
2019-01-28 20:00:00 6.7 11 Noroeste 28 Norte 0 992.4 1 74
2019-01-28 19:00:00 6.9 8 Norte 18 Noroeste 0 992.4 1.4 77
2019-01-28 18:00:00 7.5 8 Norte 13 Norte 0 991.7 1.4 83
2019-01-28 17:00:00 9.2 9 Norte 15 Nordeste 0 991.4 2.4 77
2019-01-28 16:00:00 8.3 10 Nordeste 28 Norte 1.3 991 2.7 89
2019-01-28 15:00:00 8.9 13 Norte 26 Norte 0.5 990.3 1.7 81
2019-01-28 14:00:00 11 15 Norte 37 Noroeste 0 989 -1 55
2019-01-28 13:00:00 11 9 Nordeste 24 Norte 0 988.3 -1.5 58
2019-01-28 12:00:00 10 16 Norte 28 Noroeste 0 988.6 -1.6 59
2019-01-28 11:00:00 4.9 9 Noroeste 18 Norte 0 990 -1 74
2019-01-28 10:00:00 0.5 4 Este 13 Nordeste 0 989.8 -2 95
2019-01-28 09:00:00 -1 4 Oeste 8 Oeste 0 990.2 -1.9 96
2019-01-28 08:00:00 -2.6 6 Sudoeste 8 Sudoeste 0 991 -1.7 98
2019-01-28 07:00:00 -2 0 Calma 13 Oeste 0 991.8 -1.8 97
2019-01-28 06:00:00 -1.4 4 Sudoeste 11 Sudoeste 0 992.1 -1.6 98
2019-01-28 05:00:00 -1.1 3 Sur 9 Sur 0 992.7 -1.2 95
2019-01-28 04:00:00 0.5 0 Calma 15 Noroeste 0 993.6 -0.2 94
2019-01-28 03:00:00 1.1 8 Noroeste 13 Noroeste 0 993.7 0.4 92
2019-01-28 02:00:00 1.8 8 Noroeste 11 Norte 0 993.9 1.2 91
2019-01-28 01:00:00 3.2 7 Noroeste 11 Noroeste 0 993.8 1.3 85
2019-01-28 00:00:00 2.9 8 Oeste 13 Oeste 0 993.3 0.8 90
2019-01-27 23:00:00 3.1 6 Oeste 11 Nordeste 0 992.7 0.8 90
2019-01-27 22:00:00 3.5 8 Norte 17 Norte 0 992.5 2.1 88
2019-01-27 21:00:00 5.1 12 Este 21 Nordeste 0 992.5 2.7 87
2019-01-27 20:00:00 6.8 0 Calma 21 Este 0 991.9 2.8 81
2019-01-27 19:00:00 8 6 Sudoeste 15 Sudoeste 0.1 990.4 1.3 88
2019-01-27 18:00:00 8.4 14 Nordeste 18 Nordeste 0 989.8 0.8 89
2019-01-27 17:00:00 10.3 7 Norte 24 Nordeste 0.4 989.1 -0.2 76
2019-01-27 16:00:00 11.1 6 Nordeste 28 Nordeste 0 989.1 -0.7 75
2019-01-27 15:00:00 13.8 12 Nordeste 26 Norte 0 989 -1.7 66
2019-01-27 14:00:00 13.1 13 Nordeste 21 Nordeste 0 989.3 -1.8 71
2019-01-27 13:00:00 9.1 5 Nordeste 15 Nordeste 0 989.8 -1.1 86
2019-01-27 12:00:00 7.4 10 Nordeste 15 Nordeste 0 990.7 -0.8 91
2019-01-27 11:00:00 5.9 0 Calma 15 Este 0 991.1 -0.5 92
2019-01-27 10:00:00 5.3 3 Sudoeste 9 Oeste 0 990.9 -1 95
2019-01-27 09:00:00 4.3 3 Sur 8 Sur 0 991.5 -0.9 96
2019-01-27 08:00:00 4.4 6 Sudeste 13 Noroeste 0 991.6 -1.3 98
2019-01-27 07:00:00 2.4 0 Calma 2 Noroeste 0 991.9 -2 98
2019-01-27 06:00:00 1.4 6 Nordeste 8 Nordeste 0 992.4 -2 98
2019-01-27 05:00:00 1.8 0 Calma 11 Oeste 0 992.9 -1.9 98
2019-01-27 04:00:00 1.7 2 Sudoeste 8 Sudoeste 0 993.9 -1.5 98
2019-01-27 03:00:00 1.8 2 Oeste 9 Norte 0 994.4 -1.4 99
2019-01-27 02:00:00 2.1 2 Norte 9 Nordeste 0 994.8 -1.5 99
2019-01-27 01:00:00 2 3 Nordeste 8 Nordeste 0 995.4 -1.2 97
2019-01-27 00:00:00 2.6 4 Norte 8 Norte 0 995.8 -1.3 97
2019-01-26 23:00:00 3.5 6 Oeste 11 Sudoeste 0 996.3 -1 96
2019-01-26 22:00:00 4.8 0 Calma 9 Norte 0 996.6 -1 94
2019-01-26 21:00:00 6.5 6 Norte 13 Norte 0 997.1 -0.9 91
2019-01-26 20:00:00 6.6 4 Este 8 Nordeste 0 997.3 -1.3 92
2019-01-26 19:00:00 8.7 0 Calma 13 Sur 0 997.6 -1.6 87
2019-01-26 18:00:00 10.5 11 Sur 17 Sur 0 998 -1.4 80
2019-01-26 17:00:00 13.1 14 Sur 21 Sur 0 998.6 -1.5 69
2019-01-26 16:00:00 14.1 19 Sur 26 Sur 0 999.2 -1.8 66
2019-01-26 15:00:00 15.7 17 Sur 24 Sur 0 999.4 -2.4 55
2019-01-26 14:00:00 15.4 16 Sur 26 Sur 0 1000.1 -1.9 55
2019-01-26 13:00:00 14.2 13 Sur 18 Sur 0 1001 -0.8 51
2019-01-26 12:00:00 12.6 6 Sudoeste 11 Sudoeste 0 1001.8 0 54
2019-01-26 11:00:00 8 5 Sudoeste 9 Sur 0 1002 0.6 69
2019-01-26 10:00:00 5.1 6 Sudoeste 9 Sur 0 1001.8 1 78
2019-01-26 09:00:00 -0.1 6 Nordeste 11 Nordeste 0 1001.8 0.9 88
2019-01-26 08:00:00 -1.1 0 Calma 8 Este 0 1001.4 0.7 91
2019-01-26 07:00:00 0 2 Nordeste 9 Este 0 1000.8 0.6 90
2019-01-26 06:00:00 -0.7 6 Nordeste 13 Nordeste 0 1000.9 1.1 88
2019-01-26 05:00:00 -0.1 0 Calma 11 Este 0 1000.7 1.4 87
2019-01-26 04:00:00 0.8 5 Norte 11 Nordeste 0 1000.2 1.2 82
2019-01-26 03:00:00 0.5 5 Nordeste 9 Nordeste 0 999.8 1.6 84
2019-01-26 02:00:00 1.9 6 Noroeste 13 Oeste 0 999.3 1.6 79
2019-01-26 01:00:00 0.9 5 Noroeste 15 Nordeste 0 999 1.4 84
2019-01-26 00:00:00 1.6 4 Este 13 Nordeste 0 998.2 1.2 82
2019-01-25 23:00:00 2.2 3 Nordeste 13 Oeste 0 997.7 1.3 79
2019-01-25 22:00:00 2.4 6 Oeste 13 Oeste 0 997.6 1.2 80
2019-01-25 21:00:00 4.2 8 Sudeste 21 Norte 0 997 1.1 73
2019-01-25 20:00:00 5.2 3 Norte 13 Oeste 0 996.4 0.8 70
2019-01-25 19:00:00 7.4 7 Oeste 13 Sudoeste 0 996.4 1.1 65
2019-01-25 18:00:00 9.2 11 Sudoeste 21 Sur 0 995.9 1.1 58
2019-01-25 17:00:00 13.2 15 Sur 21 Sur 0 995.6 0.7 35
2019-01-25 16:00:00 14.3 13 Sur 21 Sur 0 995.3 -0.2 28
2019-01-25 15:00:00 14.5 15 Sur 24 Sur 0 994.8 -1.3 24
2019-01-25 14:00:00 14.9 12 Sur 24 Sur 0 994.9 -1.3 22
2019-01-25 13:00:00 13.7 17 Sur 30 Sur 0 995.5 0 28
2019-01-25 12:00:00 12.6 10 Sur 22 Este 0 996.1 1.5 41
2019-01-25 11:00:00 11.4 9 Nordeste 28 Nordeste 0 996.2 2 47
2019-01-25 10:00:00 8.3 8 Sudoeste 28 Norte 0 995.5 1.3 36
2019-01-25 09:00:00 9.7 12 Norte 32 Norte 0 994.6 0.7 39
2019-01-25 08:00:00 4.3 14 Norte 28 Norte 0 994.2 1 46
2019-01-25 07:00:00 -0.9 13 Oeste 17 Oeste 0 994.2 1.3 59
2019-01-25 06:00:00 0 5 Sur 21 Nordeste 0 993.9 0.6 53
2019-01-25 05:00:00 1.3 6 Sudoeste 18 Sudoeste 0 993.2 -0.1 49
2019-01-25 04:00:00 5.2 11 Noroeste 24 Noroeste 0 992.9 -0.4 27
2019-01-25 03:00:00 2.1 6 Norte 17 Oeste 0 993.3 0.2 36
2019-01-25 02:00:00 0.5 11 Oeste 15 Oeste 0 993.3 0.5 39
2019-01-25 01:00:00 -0.4 8 Oeste 17 Nordeste 0 993.3 0.8 51
2019-01-25 00:00:00 1.9 8 Nordeste 15 Norte 0 993.1 1.1 40
2019-01-24 23:00:00 5 10 Norte 13 Norte 0 992.8 1.5 22
2019-01-24 22:00:00 5.4 8 Noroeste 15 Noroeste 0 992.5 1.9 23
2019-01-24 21:00:00 5 6 Sur 15 Norte 0 992 2.4 28
2019-01-24 20:00:00 5 3 Noroeste 18 Nordeste 0 991.3 2.9 28
2019-01-24 19:00:00 7.2 14 Norte 26 Noroeste 0 990.6 3.2 23
2019-01-24 18:00:00 9.2 13 Nordeste 30 Norte 0 989.6 3.2 18
2019-01-24 17:00:00 12 8 Norte 33 Nordeste 0 988.4 2.7 15
2019-01-24 16:00:00 13.1 14 Noroeste 45 Norte 0 987.4 2 14
2019-01-24 15:00:00 13.5 21 Norte 63 Norte 0 986.4 0.6 13
2019-01-24 14:00:00 12.8 44 Norte 68 Norte 0 985.7 0.1 13
2019-01-24 13:00:00 12.8 38 Norte 67 Norte 0 985.4 0.3 13
2019-01-24 12:00:00 12.1 28 Norte 46 Nordeste 0 985.8 1.1 16
2019-01-24 11:00:00 10.9 18 Norte 33 Norte 0 985.6 1.4 21
2019-01-24 10:00:00 8.6 6 Norte 15 Nordeste 0 985.1 1.7 28
2019-01-24 09:00:00 6.5 14 Norte 39 Norte 0 984.7 1.6 28
2019-01-24 08:00:00 3.5 11 Norte 22 Norte 0 984.2 0.8 36
2019-01-24 07:00:00 1.8 10 Noroeste 18 Norte 0 983.4 -0.3 51
2019-01-24 06:00:00 2.2 9 Oeste 15 Oeste 0 983.1 -0.6 55
2019-01-24 05:00:00 2.7 8 Noroeste 30 Noroeste 0 983.4 -0.2 57
2019-01-24 04:00:00 3.5 14 Noroeste 45 Norte 0 983.7 0 54
2019-01-24 03:00:00 5.1 21 Norte 46 Noroeste 0 983.7 0.1 36
2019-01-24 02:00:00 4 12 Norte 41 Norte 0 983.6 0.2 39
2019-01-24 01:00:00 3.3 12 Norte 24 Norte 0 983.7 0.6 47
2019-01-24 00:00:00 3.8 13 Norte 26 Norte 0 983.6 0.6 51
2019-01-23 23:00:00 1.3 6 Nordeste 15 Noroeste 0 983.4 0.8 76
2019-01-23 22:00:00 2.3 10 Noroeste 22 Norte 0 983.1 1.1 77
2019-01-23 21:00:00 1.5 13 Nordeste 21 Nordeste 0 983 2.3 86
2019-01-23 20:00:00 3.3 13 Nordeste 42 Nordeste 0 982.6 2.3 79
2019-01-23 19:00:00 5 30 Nordeste 37 Nordeste 0 982 2.8 70
2019-01-23 18:00:00 6.5 9 Norte 22 Noroeste 0 980.7 1.3 71
2019-01-23 17:00:00 7.6 15 Norte 22 Norte 0 980.3 0.6 69
2019-01-23 16:00:00 8 5 Norte 13 Norte 0 979.2 -1.4 70
2019-01-23 15:00:00 7.6 5 Norte 21 Nordeste 0 979.4 -2.8 72
2019-01-23 14:00:00 8.8 17 Nordeste 28 Nordeste 0 979.7 -2.4 59
2019-01-23 13:00:00 8 5 Norte 17 Norte 0 980.6 -1.6 58
2019-01-23 12:00:00 6.6 10 Norte 15 Norte 0 982.2 -0.6 67
2019-01-23 11:00:00 3 8 Sur 17 Oeste 0 982.1 -0.5 83
2019-01-23 10:00:00 1.7 8 Sudoeste 11 Sudoeste 0 982.2 -1.4 85
2019-01-23 09:00:00 0.5 7 Sudoeste 9 Oeste 0 982.8 -1.7 90
2019-01-23 08:00:00 -0.1 2 Sur 11 Nordeste 0 982.6 -2.6 91
2019-01-23 07:00:00 -0.5 5 Este 9 Este 0 983.6 -2.8 92
2019-01-23 06:00:00 -0.9 5 Sudoeste 9 Sur 0 984.5 -2.6 92
2019-01-23 05:00:00 0.1 5 Sur 8 Oeste 0 985.2 -2.4 90
2019-01-23 04:00:00 0 2 Sudoeste 8 Sur 0 986.4 -1.8 89
2019-01-23 03:00:00 0.7 0 Calma 5 Este 0 987.1 -2 85
2019-01-23 02:00:00 1.4 4 Este 11 Sur 0 987.6 -2 82
2019-01-23 01:00:00 2.5 6 Oeste 9 Oeste 0 988.2 -1.8 77
2019-01-23 00:00:00 3.7 5 Noroeste 15 Noroeste 0 989.1 -1.3 70
2019-01-22 23:00:00 5 8 Noroeste 13 Noroeste 0 989.6 -0.9 63
2019-01-22 22:00:00 5.5 6 Noroeste 17 Noroeste 0 990 -0.2 62
2019-01-22 21:00:00 5.9 8 Norte 21 Noroeste 0 990.4 -0.1 58
2019-01-22 20:00:00 6.2 9 Norte 21 Norte 0 990.5 -0.5 49
2019-01-22 19:00:00 5.5 2 Noroeste 8 Noroeste 0 990.2 -1.2 59
2019-01-22 18:00:00 7.2 5 Oeste 11 Noroeste 0 990.5 -1.6 57
2019-01-22 17:00:00 8.7 4 Oeste 21 Sudoeste 0 991 -2.3 50
2019-01-22 16:00:00 9.8 15 Sudoeste 26 Sur 0 991.4 -3.4 47
2019-01-22 15:00:00 10.8 20 Sur 28 Sur 0 992.1 -4.4 42
2019-01-22 14:00:00 10.5 13 Sudoeste 18 Sudoeste 0 993.3 -4 55
2019-01-22 13:00:00 8 7 Sudoeste 11 Sur 0 994.8 -3.1 69
2019-01-22 12:00:00 7.3 5 Sur 11 Sur 0 996.5 -1.6 68
2019-01-22 11:00:00 4.2 4 Sudeste 9 Sur 0 997.3 -1 82
2019-01-22 10:00:00 0.9 5 Sur 9 Oeste 0 997.9 -0.4 92
2019-01-22 09:00:00 -2.3 4 Nordeste 8 Nordeste 0 998.1 -0.3 96
2019-01-22 08:00:00 -2.8 6 Sudoeste 13 Nordeste 0 998.3 -0.3 98
2019-01-22 07:00:00 -2.7 0 Calma 9 Nordeste 0 998.3 -1 97
2019-01-22 06:00:00 -1.9 2 Sudoeste -- -- 0 998.4 -1.7 98
2019-01-22 05:00:00 -1.8 4 Oeste 8 Oeste 0 998.6 -1.8 97
2019-01-22 04:00:00 -1 4 Noroeste 8 Noroeste 0 999.3 -1.7 96
2019-01-22 03:00:00 0.7 0 Calma 11 Noroeste 0 1000.1 -1.4 92
2019-01-22 02:00:00 1.5 9 Noroeste 13 Noroeste 0 1000.4 -1 89
2019-01-22 01:00:00 1.1 6 Norte 11 Norte 0 1001 -0.4 91
2019-01-22 00:00:00 1.2 5 Norte 9 Norte 0 1001.5 0.2 89
2019-01-21 23:00:00 3.2 8 Norte 11 Norte 0 1001.4 0.4 82
2019-01-21 22:00:00 3.9 2 Nordeste 13 Nordeste 0 1001.4 0.8 79
2019-01-21 21:00:00 5.4 10 Nordeste 22 Nordeste 0 1001.3 1.2 76
2019-01-21 20:00:00 4.3 13 Nordeste 17 Nordeste 0 1001 1 81
2019-01-21 19:00:00 4.9 9 Este 15 Este 0 1000.6 -- 75
2019-01-21 18:00:00 6.3 10 Sur 13 Sur 0 1000.1 0.3 75
2019-01-21 17:00:00 8.6 6 Sudeste 8 Sur 0 1000 0 66
2019-01-21 16:00:00 -- -- -- -- -- -- -- -- --
2019-01-21 15:00:00 10.8 12 Nordeste 21 Este 0 999.8 -1.2 57
2019-01-21 14:00:00 10.5 9 Nordeste 18 Este 0 1000 -1 57
2019-01-21 13:00:00 9.8 0 Calma 11 Este 0 1000.5 -0.1 60
2019-01-21 12:00:00 8.6 7 Este 15 Este 0 1001 0.9 73
2019-01-21 11:00:00 7.4 9 Sur 13 Sur 0 1001 1.3 77
2019-01-21 10:00:00 4.3 4 Sudoeste 13 Este 0 1000.6 1.4 85
2019-01-21 09:00:00 1.6 6 Nordeste 15 Noroeste 0 1000.1 1.5 91
2019-01-21 08:00:00 -0.4 3 Norte 15 Nordeste 0 999.7 1.2 97
2019-01-21 07:00:00 -0.5 8 Nordeste 11 Norte 0 999.2 0.7 96
2019-01-21 06:00:00 0.9 7 Noroeste 11 Norte 0 998.6 0 95
2019-01-21 05:00:00 2.8 5 Sur 15 Noroeste 0 998.5 -0.2 85
2019-01-21 04:00:00 3.6 10 Noroeste 15 Norte 0 998.5 -0.3 86
2019-01-21 03:00:00 3.4 7 Norte 15 Norte 0 998.6 -0.2 87
2019-01-21 02:00:00 4.1 8 Noroeste 13 Norte 0 998.7 0.1 88
2019-01-21 01:00:00 4.9 10 Norte 18 Norte 0 998.8 0.6 87
2019-01-21 00:00:00 4.9 9 Norte 17 Norte 0 998.8 1 86
2019-01-20 23:00:00 4.7 6 Norte 17 Norte 0 998.6 1.4 93
2019-01-20 22:00:00 6.1 11 Norte 24 Norte 0 998.2 1.8 88
2019-01-20 21:00:00 6.4 13 Norte 26 Norte 0 997.8 2.2 88
2019-01-20 20:00:00 6.5 18 Norte 37 Nordeste 0 997.2 2.1 86
2019-01-20 19:00:00 6.9 23 Nordeste 39 Nordeste 0 996.4 1.7 84
2019-01-20 18:00:00 7.4 16 Nordeste 26 Norte 0 995.6 1.1 83
2019-01-20 17:00:00 7.9 12 Norte 30 Nordeste 0 995.1 0.4 82
2019-01-20 16:00:00 8.2 16 Nordeste 26 Norte 0 994.7 -0.5 83
2019-01-20 15:00:00 8 19 Nordeste 39 Nordeste 0 994.5 -1.1 84
2019-01-20 14:00:00 7.7 17 Norte 30 Norte 0 994.7 -0.7 88
2019-01-20 13:00:00 7.1 14 Nordeste 22 Norte 0 995.2 0.6 91
2019-01-20 12:00:00 6.9 12 Nordeste 17 Nordeste 0 995.6 1.6 91
2019-01-20 11:00:00 6 13 Norte 21 Norte 2.4 995.4 1.9 97
2019-01-20 10:00:00 5.3 15 Norte 24 Norte 1.7 994.6 1.6 96
2019-01-20 09:00:00 5 13 Norte 18 Norte 1.4 994 1.1 98
2019-01-20 08:00:00 5 9 Nordeste 9 Nordeste 1 993.5 0.3 98
2019-01-20 07:00:00 5 0 Calma 5 Norte 0.6 993 -0.7 98
2019-01-20 06:00:00 4.6 4 Este 8 Nordeste 0 992.9 -1.2 98
2019-01-20 05:00:00 4.6 0 Calma 8 Sur 0.4 993.2 -0.8 96
2019-01-20 04:00:00 4.1 3 Este 8 Nordeste 0.5 993.7 -1 96
2019-01-20 03:00:00 3.9 5 Oeste 9 Noroeste 0 994.1 -1.1 94
2019-01-20 02:00:00 3 7 Oeste 9 Oeste 0 994 -1.5 93
2019-01-20 01:00:00 2.3 0 Calma 11 Sudoeste 0 994.7 -0.8 93
2019-01-20 00:00:00 2.5 9 Oeste 11 Oeste 0 995.2 -0.5 93
2019-01-19 23:00:00 2.9 6 Oeste 9 Oeste 0 995.5 -0.7 92
2019-01-19 22:00:00 3.9 3 Sudoeste 15 Oeste 0 995.5 -0.6 89
2019-01-19 21:00:00 5.3 8 Sudoeste 15 Sudoeste 0 995.7 -0.4 88
2019-01-19 20:00:00 5.7 10 Sur 17 Sur 0 996.2 0 89
2019-01-19 19:00:00 6.9 13 Sudoeste 22 Sudoeste 0 996.1 -0.5 84
2019-01-19 18:00:00 7.9 17 Sur 28 Sur 0 996.1 -0.8 80
2019-01-19 17:00:00 9.9 19 Sur 30 Sur 0 996.2 -1.3 72
2019-01-19 16:00:00 11.4 20 Sur 32 Sur 0 996.6 -1.8 64
2019-01-19 15:00:00 12 23 Sur 32 Sur 0 996.9 -2.4 63
2019-01-19 14:00:00 12.3 21 Sur 30 Sur 0 997.5 -2.4 62
2019-01-19 13:00:00 11.9 18 Sur 32 Sur 0 998.4 -1.2 64
2019-01-19 12:00:00 10.2 10 Sur 17 Sur 0 999.3 -0.1 73
2019-01-19 11:00:00 7.8 6 Sur 9 Sur 0 999.9 0.7 78
2019-01-19 10:00:00 5.6 0 Calma 8 Oeste 0 999.6 0.8 86
2019-01-19 09:00:00 1.7 6 Oeste 9 Oeste 0 999.4 0.8 98
2019-01-19 08:00:00 1 0 Calma 5 Este 0 999.2 0.2 98
2019-01-19 07:00:00 2.1 5 Oeste 9 Oeste 0 998.8 -0.5 97
2019-01-19 06:00:00 3 4 Sur 5 Sudoeste 0 998.6 -1.1 96
2019-01-19 05:00:00 4.2 2 Noroeste 9 Norte 0 999 -0.8 96
2019-01-19 04:00:00 3.7 6 Noroeste 9 Este 0 999.3 -0.9 95
2019-01-19 03:00:00 5 8 Nordeste 11 Noroeste 0 999.7 -0.9 94
2019-01-19 02:00:00 3.8 0 Calma 8 Norte 0 999.8 -0.5 96
2019-01-19 01:00:00 3.8 3 Este 9 Noroeste 0 1000.2 0.2 95
2019-01-19 00:00:00 3.5 6 Noroeste 9 Noroeste 0 1000.6 0.6 96